Kitchings Mill, South Carolina
Current Conditions -  °F | °C
As of 3:55 PM on Saturday 25 Oct 2014 (Local Time) from KAIK Reporting Station
Clear Clear  
Wind Chill: 24°   Ceiling: Unl
Heat Index: 24°   Visibility: 10mi
Dew Point:   Wind: 7mph
Humidity: 34%   Direction: 280°W
Pressure: 30"   Gusts: NA
Location:  33.5901°N, 81.3327°W
Report Text: KAIK 251955Z AUTO 28006KT 10SM CLR 24/07 A3000 RMK AO2 PNO
Loading
Personal Weather Stations






























Interactive Weather Map
Tropical Storm Tracking
New forecast layout! Learn more

10-Day Weather Forecast

Advertisements
Track Severe Weather on mobile